createdAt,value
2018-08-27T00:00:25.873Z,1006.52
2018-08-27T00:01:35.034Z,1006.52
2018-08-27T00:02:44.440Z,1006.52
2018-08-27T00:03:54.116Z,1006.51
2018-08-27T00:05:03.543Z,1006.45
2018-08-27T00:06:13.222Z,1006.47
2018-08-27T00:07:22.119Z,1006.48
2018-08-27T00:08:32.053Z,1006.54
2018-08-27T00:09:41.465Z,1006.57
2018-08-27T00:10:50.864Z,1006.57
2018-08-27T00:11:59.780Z,1006.6
2018-08-27T00:13:08.687Z,1006.54
2018-08-27T00:14:18.613Z,1006.55
2018-08-27T00:15:28.555Z,1006.58
2018-08-27T00:16:37.967Z,1006.65
2018-08-27T00:17:47.907Z,1006.68
2018-08-27T00:18:57.321Z,1006.65
2018-08-27T00:20:06.485Z,1006.66
2018-08-27T00:21:15.134Z,1006.63
2018-08-27T00:22:24.806Z,1006.63
2018-08-27T00:23:34.736Z,1006.65
2018-08-27T00:24:43.381Z,1006.69
2018-08-27T00:25:53.037Z,1006.67
2018-08-27T00:27:02.463Z,1006.66
2018-08-27T00:28:11.629Z,1006.62
2018-08-27T00:29:21.318Z,1006.64
2018-08-27T00:30:30.994Z,1006.62
2018-08-27T00:31:40.407Z,1006.6
2018-08-27T00:32:49.817Z,1006.55
2018-08-27T00:33:59.495Z,1006.56
2018-08-27T00:35:08.912Z,1006.51
2018-08-27T00:36:17.811Z,1006.56
2018-08-27T00:37:26.449Z,1006.53
2018-08-27T00:38:35.342Z,1006.58
2018-08-27T00:39:45.008Z,1006.57
2018-08-27T00:40:53.907Z,1006.61
2018-08-27T00:42:03.344Z,1006.62
2018-08-27T00:43:13.277Z,1006.6
2018-08-27T00:44:22.191Z,1006.59
2018-08-27T00:45:31.348Z,1006.59
2018-08-27T00:46:40.767Z,1006.58
2018-08-27T00:47:50.447Z,1006.54
2018-08-27T00:49:00.115Z,1006.51
2018-08-27T00:50:09.289Z,1006.47
2018-08-27T00:51:18.712Z,1006.47
2018-08-27T00:52:28.131Z,1006.47
2018-08-27T00:53:37.807Z,1006.5
2018-08-27T00:54:47.481Z,1006.48
2018-08-27T00:55:56.644Z,1006.49
2018-08-27T00:57:06.108Z,1006.5
2018-08-27T00:58:15.778Z,1006.52
2018-08-27T00:59:24.945Z,1006.51
2018-08-27T01:00:34.380Z,1006.52
2018-08-27T01:01:43.805Z,1006.5
2018-08-27T01:02:53.738Z,1006.48
2018-08-27T01:04:03.160Z,1006.5
2018-08-27T01:05:12.830Z,1006.45
2018-08-27T01:06:22.519Z,1006.41
2018-08-27T01:07:31.671Z,1006.4
2018-08-27T01:08:41.104Z,1006.39
2018-08-27T01:09:50.778Z,1006.36
2018-08-27T01:10:59.929Z,1006.32
2018-08-27T01:12:09.093Z,1006.3
2018-08-27T01:13:18.509Z,1006.27
2018-08-27T01:14:27.666Z,1006.26
2018-08-27T01:15:37.331Z,1006.26
2018-08-27T01:16:46.755Z,1006.23
2018-08-27T01:17:56.169Z,1006.26
2018-08-27T01:19:05.588Z,1006.22
2018-08-27T01:20:15.520Z,1006.21
2018-08-27T01:21:25.187Z,1006.28
2018-08-27T01:22:34.213Z,1006.17
2018-08-27T01:23:43.477Z,1006.22
2018-08-27T01:24:53.248Z,1006.23
2018-08-27T01:26:02.918Z,1006.22
2018-08-27T01:27:12.095Z,1006.21
2018-08-27T01:28:20.987Z,1006.16
2018-08-27T01:29:30.410Z,1006.14
2018-08-27T01:30:40.084Z,1006.12
2018-08-27T01:31:49.246Z,1006.09
2018-08-27T01:32:58.926Z,1006.08
2018-08-27T01:34:08.602Z,1006.08
2018-08-27T01:35:18.012Z,1006.05
2018-08-27T01:36:27.940Z,1006.05
2018-08-27T01:37:37.097Z,1005.98
2018-08-27T01:38:46.505Z,1006.04
2018-08-27T01:39:55.652Z,1005.96
2018-08-27T01:41:05.612Z,1005.98
2018-08-27T01:42:15.027Z,1005.91
2018-08-27T01:43:24.187Z,1005.97
2018-08-27T01:44:33.087Z,1005.9
2018-08-27T01:45:42.779Z,1005.87
2018-08-27T01:46:52.189Z,1005.86
2018-08-27T01:48:01.097Z,1005.77
2018-08-27T01:49:10.513Z,1005.78
2018-08-27T01:50:19.925Z,1005.81
2018-08-27T01:51:29.085Z,1005.8
2018-08-27T01:52:38.510Z,1005.81
2018-08-27T01:53:47.659Z,1005.8
2018-08-27T01:54:56.823Z,1005.76
2018-08-27T01:56:06.510Z,1005.78
2018-08-27T01:57:15.919Z,1005.73
2018-08-27T01:58:25.353Z,1005.7
2018-08-27T01:59:35.035Z,1005.72
2018-08-27T02:00:44.439Z,1005.61
2018-08-27T02:01:54.128Z,1005.54
2018-08-27T02:03:04.054Z,1005.6
2018-08-27T02:04:13.744Z,1005.61
2018-08-27T02:05:23.164Z,1005.61
2018-08-27T02:06:32.577Z,1005.59
2018-08-27T02:07:42.237Z,1005.59
2018-08-27T02:08:51.386Z,1005.55
2018-08-27T02:10:01.316Z,1005.53
2018-08-27T02:11:10.988Z,1005.5
2018-08-27T02:12:20.700Z,1005.45
2018-08-27T02:13:29.826Z,1005.47
2018-08-27T02:14:38.964Z,1005.43
2018-08-27T02:15:48.671Z,1005.45
2018-08-27T02:16:58.076Z,1005.43
2018-08-27T02:18:07.765Z,1005.44
2018-08-27T02:19:17.191Z,1005.42
2018-08-27T02:20:26.610Z,1005.42
2018-08-27T02:21:36.038Z,1005.36
2018-08-27T02:22:45.449Z,1005.43
2018-08-27T02:23:54.906Z,1005.41
2018-08-27T02:25:04.573Z,1005.42
2018-08-27T02:26:13.725Z,1005.38
2018-08-27T02:27:23.404Z,1005.34
2018-08-27T02:28:33.327Z,1005.39
2018-08-27T02:29:42.473Z,1005.38
2018-08-27T02:30:51.901Z,1005.34
2018-08-27T02:32:01.302Z,1005.33
2018-08-27T02:33:11.250Z,1005.36
2018-08-27T02:34:20.408Z,1005.3
2018-08-27T02:35:29.820Z,1005.4
2018-08-27T02:36:39.501Z,1005.44
2018-08-27T02:37:48.907Z,1005.48
2018-08-27T02:38:58.383Z,1005.55
2018-08-27T02:40:07.792Z,1005.56
2018-08-27T02:41:16.950Z,1005.5
2018-08-27T02:42:26.377Z,1005.48
2018-08-27T02:43:35.541Z,1005.46
2018-08-27T02:44:44.421Z,1005.44
2018-08-27T02:45:53.580Z,1005.47
2018-08-27T02:47:02.995Z,1005.54
2018-08-27T02:48:12.662Z,1005.51
2018-08-27T02:49:22.343Z,1005.47
2018-08-27T02:50:31.496Z,1005.49
2018-08-27T02:51:40.918Z,1005.5
2018-08-27T02:52:50.349Z,1005.48
2018-08-27T02:53:59.761Z,1005.46
2018-08-27T02:55:09.198Z,1005.51
2018-08-27T02:56:18.107Z,1005.53
2018-08-27T02:57:27.268Z,1005.51
2018-08-27T02:58:36.422Z,1005.53
2018-08-27T02:59:45.828Z,1005.55
2018-08-27T03:00:55.500Z,1005.53
2018-08-27T03:02:05.433Z,1005.53
2018-08-27T03:03:14.916Z,1005.49
2018-08-27T03:04:24.028Z,1005.43
2018-08-27T03:05:33.703Z,1005.45
2018-08-27T03:06:43.113Z,1005.48
2018-08-27T03:07:52.274Z,1005.45
2018-08-27T03:09:01.181Z,1005.4
2018-08-27T03:10:10.851Z,1005.37
2018-08-27T03:11:20.285Z,1005.32
2018-08-27T03:12:29.713Z,1005.35
2018-08-27T03:13:39.118Z,1005.32
2018-08-27T03:14:48.787Z,1005.31
2018-08-27T03:15:57.939Z,1005.31
2018-08-27T03:17:07.117Z,1005.32
2018-08-27T03:18:16.317Z,1005.3
2018-08-27T03:19:26.244Z,1005.36
2018-08-27T03:20:35.663Z,1005.26
2018-08-27T03:21:45.363Z,1005.3
2018-08-27T03:22:54.794Z,1005.29
2018-08-27T03:24:04.205Z,1005.3
2018-08-27T03:25:13.903Z,1005.28
2018-08-27T03:26:23.318Z,1005.26
2018-08-27T03:27:32.746Z,1005.28
2018-08-27T03:28:42.165Z,1005.28
2018-08-27T03:29:51.584Z,1005.24
2018-08-27T03:31:01.001Z,1005.25
2018-08-27T03:32:10.480Z,1005.2
2018-08-27T03:33:19.676Z,1005.17
2018-08-27T03:34:29.352Z,1005.23
2018-08-27T03:35:39.027Z,1005.19
2018-08-27T03:36:48.978Z,1005.3
2018-08-27T03:37:58.692Z,1005.24
2018-08-27T03:39:08.637Z,1005.25
2018-08-27T03:40:17.539Z,1005.28
2018-08-27T03:41:26.987Z,1005.3
2018-08-27T03:42:36.647Z,1005.29
2018-08-27T03:43:46.343Z,1005.2
2018-08-27T03:44:55.250Z,1005.24
2018-08-27T03:46:04.415Z,1005.21
2018-08-27T03:47:13.591Z,1005.22
2018-08-27T03:48:22.758Z,1005.19
2018-08-27T03:49:32.110Z,1005.2
2018-08-27T03:50:41.811Z,1005.19
2018-08-27T03:51:51.489Z,1005.17
2018-08-27T03:53:00.137Z,1005.12
2018-08-27T03:54:09.806Z,1005.11
2018-08-27T03:55:18.960Z,1005.12
2018-08-27T03:56:28.378Z,1005.15
2018-08-27T03:57:37.804Z,1005.12
2018-08-27T03:58:47.227Z,1005.14
2018-08-27T03:59:56.715Z,1005.15
2018-08-27T04:01:06.643Z,1005.15
2018-08-27T04:02:15.837Z,1005.19
2018-08-27T04:03:24.727Z,1005.15
2018-08-27T04:04:33.875Z,1005.13
2018-08-27T04:05:43.035Z,1005.16
2018-08-27T04:06:52.702Z,1005.16
2018-08-27T04:08:01.872Z,1005.21
2018-08-27T04:09:11.295Z,1005.18
2018-08-27T04:10:20.721Z,1005.18
2018-08-27T04:11:30.148Z,1005.14
2018-08-27T04:12:39.574Z,1005.21
2018-08-27T04:13:48.739Z,1005.14
2018-08-27T04:14:58.434Z,1005.14
2018-08-27T04:16:07.860Z,1005.15
2018-08-27T04:17:16.764Z,1005.1
2018-08-27T04:18:26.721Z,1005.14
2018-08-27T04:19:36.389Z,1005.12
2018-08-27T04:20:46.325Z,1005.09
2018-08-27T04:21:55.538Z,1005.07
2018-08-27T04:23:04.704Z,1005.1
2018-08-27T04:24:14.387Z,1005.08
2018-08-27T04:25:23.818Z,1005.07
2018-08-27T04:26:33.506Z,1005.13
2018-08-27T04:27:43.190Z,1005.07
2018-08-27T04:28:52.466Z,1005.05
2018-08-27T04:30:02.000Z,1005.04
2018-08-27T04:31:11.422Z,1005.05
2018-08-27T04:32:21.100Z,1005.08
2018-08-27T04:33:30.268Z,1005.06
2018-08-27T04:34:39.690Z,1005.03
2018-08-27T04:35:49.258Z,1005.03
2018-08-27T04:36:58.705Z,1005.05
2018-08-27T04:38:07.883Z,1005.01
2018-08-27T04:39:17.563Z,1005.01
2018-08-27T04:40:26.992Z,1004.94
2018-08-27T04:41:36.663Z,1004.92
2018-08-27T04:42:45.566Z,1004.98
2018-08-27T04:43:54.740Z,1004.98
2018-08-27T04:45:04.355Z,1004.95
2018-08-27T04:46:13.827Z,1004.97
2018-08-27T04:47:23.276Z,1004.97
2018-08-27T04:48:32.443Z,1004.99
2018-08-27T04:49:41.598Z,1005.01
2018-08-27T04:50:51.004Z,1005.01
2018-08-27T04:52:00.165Z,1005.03
2018-08-27T04:53:09.063Z,1005.03
2018-08-27T04:54:18.494Z,1005.05
2018-08-27T04:55:28.189Z,1005.05
2018-08-27T04:56:37.349Z,1005.03
2018-08-27T04:57:46.518Z,1005.05
2018-08-27T04:58:55.928Z,1005.07
2018-08-27T05:00:05.352Z,1005.07
2018-08-27T05:01:14.522Z,1005.05
2018-08-27T05:02:24.302Z,1005.1
2018-08-27T05:03:33.713Z,1005.07
2018-08-27T05:04:43.396Z,1005.08
2018-08-27T05:05:52.821Z,1005.05
2018-08-27T05:07:02.746Z,1005.08
2018-08-27T05:08:12.470Z,1005.07
2018-08-27T05:09:21.369Z,1005.11
2018-08-27T05:10:31.043Z,1005.12
2018-08-27T05:11:40.466Z,1005.09
2018-08-27T05:12:49.616Z,1005.1
2018-08-27T05:13:58.766Z,1005.12
2018-08-27T05:15:08.194Z,1005.13
2018-08-27T05:16:17.343Z,1005.17
2018-08-27T05:17:26.772Z,1005.16
2018-08-27T05:18:36.449Z,1005.16
2018-08-27T05:19:46.149Z,1005.23
2018-08-27T05:20:55.348Z,1005.21
2018-08-27T05:22:04.503Z,1005.19
2018-08-27T05:23:13.677Z,1005.2
2018-08-27T05:24:22.565Z,1005.27
2018-08-27T05:25:32.231Z,1005.22
2018-08-27T05:26:41.658Z,1005.22
2018-08-27T05:27:51.093Z,1005.26
2018-08-27T05:29:00.785Z,1005.26
2018-08-27T05:30:10.204Z,1005.23
2018-08-27T05:31:19.764Z,1005.31
2018-08-27T05:32:29.088Z,1005.32
2018-08-27T05:33:38.523Z,1005.35
2018-08-27T05:34:47.944Z,1005.36
2018-08-27T05:35:57.119Z,1005.36
2018-08-27T05:37:06.537Z,1005.39
2018-08-27T05:38:16.305Z,1005.39
2018-08-27T05:39:26.039Z,1005.46
2018-08-27T05:40:35.215Z,1005.44
2018-08-27T05:41:44.628Z,1005.42
2018-08-27T05:42:53.803Z,1005.45
2018-08-27T05:44:03.656Z,1005.43
2018-08-27T05:45:13.073Z,1005.45
2018-08-27T05:46:22.228Z,1005.43
2018-08-27T05:47:31.699Z,1005.43
2018-08-27T05:48:41.513Z,1005.42
2018-08-27T05:49:50.687Z,1005.43
2018-08-27T05:51:00.180Z,1005.39
2018-08-27T05:52:09.645Z,1005.39
2018-08-27T05:53:20.138Z,1005.4
2018-08-27T05:54:29.354Z,1005.44
2018-08-27T05:55:39.073Z,1005.44
2018-08-27T05:56:48.516Z,1005.45
2018-08-27T05:57:57.961Z,1005.5
2018-08-27T05:59:06.853Z,1005.46
2018-08-27T06:00:16.025Z,1005.5
2018-08-27T06:01:25.514Z,1005.56
2018-08-27T06:02:35.144Z,1005.55
2018-08-27T06:03:44.063Z,1005.56
2018-08-27T06:04:53.493Z,1005.54
2018-08-27T06:06:03.197Z,1005.56
2018-08-27T06:07:12.354Z,1005.55
2018-08-27T06:08:21.760Z,1005.58
2018-08-27T06:09:31.711Z,1005.59
2018-08-27T06:10:41.433Z,1005.62
2018-08-27T06:11:50.319Z,1005.6
2018-08-27T06:12:59.733Z,1005.64
2018-08-27T06:14:08.882Z,1005.61
2018-08-27T06:15:17.783Z,1005.64
2018-08-27T06:16:27.284Z,1005.64
2018-08-27T06:17:37.238Z,1005.68
2018-08-27T06:18:46.402Z,1005.72
2018-08-27T06:19:55.830Z,1005.7
2018-08-27T06:21:05.251Z,1005.72
2018-08-27T06:22:14.557Z,1005.69
2018-08-27T06:23:24.431Z,1005.71
2018-08-27T06:24:33.869Z,1005.73
2018-08-27T06:25:43.289Z,1005.7
2018-08-27T06:26:52.735Z,1005.68
2018-08-27T06:28:02.153Z,1005.64
2018-08-27T06:29:11.587Z,1005.68
2018-08-27T06:30:20.771Z,1005.66
2018-08-27T06:31:30.222Z,1005.67
2018-08-27T06:32:40.192Z,1005.68
2018-08-27T06:33:49.880Z,1005.75
2018-08-27T06:34:59.064Z,1005.73
2018-08-27T06:36:08.581Z,1005.73
2018-08-27T06:37:17.756Z,1005.7
2018-08-27T06:38:26.908Z,1005.78
2018-08-27T06:39:36.369Z,1005.81
2018-08-27T06:40:45.788Z,1005.76
2018-08-27T06:41:54.953Z,1005.77
2018-08-27T06:43:04.365Z,1005.78
2018-08-27T06:44:13.525Z,1005.74
2018-08-27T06:45:22.447Z,1005.77
2018-08-27T06:46:32.392Z,1005.87
2018-08-27T06:47:42.082Z,1005.83
2018-08-27T06:48:51.248Z,1005.83
2018-08-27T06:50:00.436Z,1005.89
2018-08-27T06:51:09.613Z,1005.87
2018-08-27T06:52:19.037Z,1005.88
2018-08-27T06:53:28.714Z,1005.86
2018-08-27T06:54:37.875Z,1005.85
2018-08-27T06:55:47.557Z,1005.82
2018-08-27T06:56:56.470Z,1005.77
2018-08-27T06:58:05.629Z,1005.76
2018-08-27T06:59:15.086Z,1005.77
2018-08-27T07:00:24.769Z,1005.82
2018-08-27T07:01:33.934Z,1005.8
2018-08-27T07:02:43.616Z,1005.78
2018-08-27T07:03:53.033Z,1005.8
2018-08-27T07:05:02.211Z,1005.82
2018-08-27T07:06:11.372Z,1005.86
2018-08-27T07:07:21.049Z,1005.83
2018-08-27T07:08:30.825Z,1005.83
2018-08-27T07:09:40.537Z,1005.84
2018-08-27T07:10:49.707Z,1005.8
2018-08-27T07:11:58.935Z,1005.77
2018-08-27T07:13:08.620Z,1005.8
2018-08-27T07:14:17.794Z,1005.82
2018-08-27T07:15:26.725Z,1005.82
2018-08-27T07:16:35.634Z,1005.78
2018-08-27T07:17:45.305Z,1005.8
2018-08-27T07:18:54.736Z,1005.85
2018-08-27T07:20:04.181Z,1005.83
2018-08-27T07:21:13.460Z,1005.82
2018-08-27T07:22:22.641Z,1005.85
2018-08-27T07:23:32.065Z,1005.89
2018-08-27T07:24:41.744Z,1005.89
2018-08-27T07:25:51.445Z,1005.87
2018-08-27T07:27:01.392Z,1005.9
2018-08-27T07:28:11.074Z,1005.82
2018-08-27T07:29:20.741Z,1005.81
2018-08-27T07:30:29.654Z,1005.76
2018-08-27T07:31:39.596Z,1005.82
2018-08-27T07:32:48.760Z,1005.75
2018-08-27T07:33:58.454Z,1005.76
2018-08-27T07:35:08.413Z,1005.74
2018-08-27T07:36:17.778Z,1005.74
2018-08-27T07:37:27.536Z,1005.75
2018-08-27T07:38:37.512Z,1005.76
2018-08-27T07:39:46.923Z,1005.8
2018-08-27T07:40:56.589Z,1005.84
2018-08-27T07:42:06.541Z,1005.82
2018-08-27T07:43:15.953Z,1005.86
2018-08-27T07:44:25.445Z,1005.83
2018-08-27T07:45:34.366Z,1005.87
2018-08-27T07:46:44.047Z,1005.9
2018-08-27T07:47:53.732Z,1005.88
2018-08-27T07:49:02.902Z,1005.92
2018-08-27T07:50:12.577Z,1005.99
2018-08-27T07:51:22.119Z,1006.02
2018-08-27T07:52:32.011Z,1006.03
2018-08-27T07:53:41.439Z,1005.96
2018-08-27T07:54:50.615Z,1006.01
2018-08-27T07:56:00.040Z,1006.03
2018-08-27T07:57:09.960Z,1006.05
2018-08-27T07:58:19.152Z,1006.02
2018-08-27T07:59:29.416Z,1006.06
2018-08-27T08:00:39.347Z,1006.03
2018-08-27T08:01:48.517Z,1006.08
2018-08-27T08:02:57.418Z,1006.07
2018-08-27T08:04:06.845Z,1006.1
2018-08-27T08:05:16.564Z,1006.13
2018-08-27T08:06:26.238Z,1006.19
2018-08-27T08:07:35.914Z,1006.11
2018-08-27T08:08:45.866Z,1006.14
2018-08-27T08:09:55.291Z,1006.17
2018-08-27T08:11:04.714Z,1006.12
2018-08-27T08:12:14.408Z,1006.14
2018-08-27T08:13:24.089Z,1006.13
2018-08-27T08:14:33.487Z,1006.11
2018-08-27T08:15:42.917Z,1006.13
2018-08-27T08:16:52.588Z,1006.14
2018-08-27T08:18:02.283Z,1006.15
2018-08-27T08:19:11.200Z,1006.15
2018-08-27T08:20:20.118Z,1006.18
2018-08-27T08:21:29.800Z,1006.19
2018-08-27T08:22:38.980Z,1006.26
2018-08-27T08:23:48.553Z,1006.21
2018-08-27T08:24:58.240Z,1006.24
2018-08-27T08:26:07.668Z,1006.23
2018-08-27T08:27:16.838Z,1006.31
2018-08-27T08:28:26.000Z,1006.25
2018-08-27T08:29:35.704Z,1006.28
2018-08-27T08:30:44.890Z,1006.3
2018-08-27T08:31:54.306Z,1006.3
2018-08-27T08:33:03.801Z,1006.31
2018-08-27T08:34:14.049Z,1006.29
2018-08-27T08:35:24.006Z,1006.23
2018-08-27T08:36:32.922Z,1006.29
2018-08-27T08:37:42.098Z,1006.34
2018-08-27T08:38:51.784Z,1006.36
2018-08-27T08:40:01.300Z,1006.36
2018-08-27T08:41:11.343Z,1006.34
2018-08-27T08:42:21.030Z,1006.36
2018-08-27T08:43:30.711Z,1006.39
2018-08-27T08:44:40.163Z,1006.4
2018-08-27T08:45:49.857Z,1006.39
2018-08-27T08:46:59.294Z,1006.44
2018-08-27T08:48:08.736Z,1006.43
2018-08-27T08:49:18.417Z,1006.42
2018-08-27T08:50:27.844Z,1006.47
2018-08-27T08:51:37.528Z,1006.44
2018-08-27T08:52:46.951Z,1006.43
2018-08-27T08:53:56.891Z,1006.43
2018-08-27T08:55:06.061Z,1006.43
2018-08-27T08:56:15.471Z,1006.44
2018-08-27T08:57:25.186Z,1006.48
2018-08-27T08:58:34.873Z,1006.5
2018-08-27T08:59:44.046Z,1006.48
2018-08-27T09:00:53.749Z,1006.52
2018-08-27T09:02:02.689Z,1006.51
2018-08-27T09:03:11.601Z,1006.47
2018-08-27T09:04:21.570Z,1006.45
2018-08-27T09:05:30.472Z,1006.52
2018-08-27T09:06:39.886Z,1006.52
2018-08-27T09:07:49.312Z,1006.53
2018-08-27T09:08:59.257Z,1006.47
2018-08-27T09:10:09.489Z,1006.53
2018-08-27T09:11:18.656Z,1006.53
2018-08-27T09:12:28.071Z,1006.57
2018-08-27T09:13:37.499Z,1006.54
2018-08-27T09:14:46.938Z,1006.52
2018-08-27T09:15:56.110Z,1006.59
2018-08-27T09:17:05.918Z,1006.59
2018-08-27T09:18:15.925Z,1006.59
2018-08-27T09:19:25.357Z,1006.61
2018-08-27T09:20:34.523Z,1006.63
2018-08-27T09:21:44.215Z,1006.63
2018-08-27T09:22:53.382Z,1006.64
2018-08-27T09:24:02.585Z,1006.63
2018-08-27T09:25:12.300Z,1006.6
2018-08-27T09:26:20.950Z,1006.64
2018-08-27T09:27:30.374Z,1006.57
2018-08-27T09:28:39.783Z,1006.61
2018-08-27T09:30:58.403Z,1006.63
2018-08-27T09:32:07.659Z,1006.6
2018-08-27T09:33:17.465Z,1006.61
2018-08-27T09:34:26.923Z,1006.66
2018-08-27T09:35:35.839Z,1006.64
2018-08-27T09:36:45.306Z,1006.73
2018-08-27T09:37:55.657Z,1006.68
2018-08-27T09:39:04.834Z,1006.76
2018-08-27T09:40:14.762Z,1006.71
2018-08-27T09:41:24.464Z,1006.77
2018-08-27T09:42:34.077Z,1006.73
2018-08-27T09:43:42.980Z,1006.69
2018-08-27T09:44:52.668Z,1006.68
2018-08-27T09:46:01.675Z,1006.69
2018-08-27T09:47:11.799Z,1006.7
2018-08-27T09:48:20.979Z,1006.68
2018-08-27T09:49:30.658Z,1006.67
2018-08-27T09:50:39.824Z,1006.67
2018-08-27T09:51:49.006Z,1006.63
2018-08-27T09:52:57.862Z,1006.66
2018-08-27T09:54:06.989Z,1006.66
2018-08-27T09:55:15.624Z,1006.62
2018-08-27T09:56:24.807Z,1006.64
2018-08-27T09:57:34.500Z,1006.61
2018-08-27T09:58:44.124Z,1006.59
2018-08-27T09:59:53.725Z,1006.62
2018-08-27T10:01:03.153Z,1006.58
2018-08-27T10:02:12.320Z,1006.67
2018-08-27T10:03:22.262Z,1006.6
2018-08-27T10:04:31.416Z,1006.67
2018-08-27T10:05:41.133Z,1006.65
2018-08-27T10:06:50.298Z,1006.68
2018-08-27T10:07:59.718Z,1006.71
2018-08-27T10:09:09.022Z,1006.66
2018-08-27T10:10:18.944Z,1006.59
2018-08-27T10:11:28.625Z,1006.63
2018-08-27T10:12:38.301Z,1006.63
2018-08-27T10:13:47.986Z,1006.62
2018-08-27T10:14:57.453Z,1006.61
2018-08-27T10:16:06.950Z,1006.7
2018-08-27T10:17:16.635Z,1006.73
2018-08-27T10:18:25.796Z,1006.7
2018-08-27T10:19:35.212Z,1006.73
2018-08-27T10:20:44.378Z,1006.7
2018-08-27T10:21:54.371Z,1006.73
2018-08-27T10:23:04.187Z,1006.73
2018-08-27T10:24:13.366Z,1006.72
2018-08-27T10:25:22.796Z,1006.72
2018-08-27T10:26:32.479Z,1006.72
2018-08-27T10:27:42.183Z,1006.62
2018-08-27T10:28:51.863Z,1006.75
2018-08-27T10:30:01.718Z,1006.76
2018-08-27T10:31:10.890Z,1006.85
2018-08-27T10:32:20.577Z,1006.81
2018-08-27T10:33:30.251Z,1006.82
2018-08-27T10:34:39.160Z,1006.81
2018-08-27T10:35:48.324Z,1006.89
2018-08-27T10:36:58.011Z,1006.8
2018-08-27T10:38:07.790Z,1006.78
2018-08-27T10:39:17.206Z,1006.81
2018-08-27T10:40:26.888Z,1006.85
2018-08-27T10:41:36.039Z,1006.86
2018-08-27T10:42:45.465Z,1006.9
2018-08-27T10:43:55.774Z,1006.92
2018-08-27T10:45:04.933Z,1006.88
2018-08-27T10:46:14.336Z,1006.87
2018-08-27T10:47:24.033Z,1006.88
2018-08-27T10:48:32.933Z,1006.75
2018-08-27T10:49:42.418Z,1006.86
2018-08-27T10:50:51.067Z,1006.9
2018-08-27T10:52:00.493Z,1006.91
2018-08-27T10:53:10.191Z,1006.89
2018-08-27T10:54:19.867Z,1006.95
2018-08-27T10:55:29.060Z,1006.99
2018-08-27T10:56:38.495Z,1006.9
2018-08-27T10:57:47.915Z,1006.97
2018-08-27T10:58:57.354Z,1006.93
2018-08-27T11:00:06.524Z,1006.87
2018-08-27T11:01:15.960Z,1006.84
2018-08-27T11:02:25.414Z,1006.93
2018-08-27T11:03:35.080Z,1006.86
2018-08-27T11:04:44.786Z,1006.91
2018-08-27T11:05:53.959Z,1006.82
2018-08-27T11:07:03.381Z,1006.86
2018-08-27T11:08:12.792Z,1006.91
2018-08-27T11:09:22.217Z,1006.83
2018-08-27T11:10:31.430Z,1006.89
2018-08-27T11:11:41.081Z,1006.81
2018-08-27T11:12:49.728Z,1006.82
2018-08-27T11:13:58.885Z,1006.78
2018-08-27T11:15:08.585Z,1006.86
2018-08-27T11:16:18.271Z,1006.86
2018-08-27T11:17:27.668Z,1006.92
2018-08-27T11:18:36.835Z,1006.92
2018-08-27T11:19:46.607Z,1006.99
2018-08-27T11:20:56.339Z,1006.97
2018-08-27T11:22:05.761Z,1007.02
2018-08-27T11:23:14.936Z,1006.92
2018-08-27T11:24:24.356Z,1006.93
2018-08-27T11:25:33.245Z,1006.98
2018-08-27T11:26:42.792Z,1006.97
2018-08-27T11:27:53.261Z,1007.01
2018-08-27T11:29:02.957Z,1007.02
2018-08-27T11:30:12.182Z,1007.08
2018-08-27T11:31:21.402Z,1007.13
2018-08-27T11:32:30.830Z,1007.1
2018-08-27T11:33:40.268Z,1007.12
2018-08-27T11:34:49.947Z,1007.14
2018-08-27T11:35:58.853Z,1007.04
2018-08-27T11:37:07.510Z,1007.22
2018-08-27T11:38:16.941Z,1007.1
2018-08-27T11:39:26.638Z,1007.08
2018-08-27T11:40:36.320Z,1007.03
2018-08-27T11:41:45.742Z,1007.09
2018-08-27T11:42:55.445Z,1007.09
2018-08-27T11:44:04.860Z,1007.13
2018-08-27T11:45:14.295Z,1007.09
2018-08-27T11:46:24.038Z,1007.12
2018-08-27T11:47:33.448Z,1007.17
2018-08-27T11:48:43.390Z,1007.16
2018-08-27T11:49:52.554Z,1007.1
2018-08-27T11:51:02.407Z,1007.15
2018-08-27T11:52:11.729Z,1007.13
2018-08-27T11:53:21.408Z,1007.09
2018-08-27T11:54:30.856Z,1007.14
2018-08-27T11:55:40.268Z,1007.19
2018-08-27T11:56:49.492Z,1007.18
2018-08-27T11:57:58.712Z,1007.19
2018-08-27T11:59:08.426Z,1007.2
2018-08-27T12:00:17.588Z,1007.18
2018-08-27T12:01:27.261Z,1007.2
2018-08-27T12:02:36.937Z,1007.23
2018-08-27T12:03:46.375Z,1007.23
2018-08-27T12:04:55.532Z,1007.24
2018-08-27T12:06:04.696Z,1007.21
2018-08-27T12:07:14.115Z,1007.21
2018-08-27T12:08:23.524Z,1007.18
2018-08-27T12:09:33.217Z,1007.29
2018-08-27T12:10:42.660Z,1007.28
2018-08-27T12:11:52.348Z,1007.27
2018-08-27T12:13:01.828Z,1007.22
2018-08-27T12:14:11.260Z,1007.21
2018-08-27T12:15:20.176Z,1007.24
2018-08-27T12:16:29.601Z,1007.19
2018-08-27T12:17:39.320Z,1007.22
2018-08-27T12:18:48.741Z,1007.28
2018-08-27T12:19:58.417Z,1007.32
2018-08-27T12:21:07.863Z,1007.28
2018-08-27T12:22:16.776Z,1007.27
2018-08-27T12:23:25.960Z,1007.31
2018-08-27T12:24:35.393Z,1007.36
2018-08-27T12:25:44.825Z,1007.3
2018-08-27T12:26:54.759Z,1007.35
2018-08-27T12:28:04.196Z,1007.38
2018-08-27T12:29:13.883Z,1007.35
2018-08-27T12:30:23.166Z,1007.34
2018-08-27T12:31:32.323Z,1007.32
2018-08-27T12:32:42.001Z,1007.34
2018-08-27T12:33:51.686Z,1007.4
2018-08-27T12:35:01.112Z,1007.41
2018-08-27T12:36:10.525Z,1007.35
2018-08-27T12:37:20.204Z,1007.39
2018-08-27T12:38:30.148Z,1007.41
2018-08-27T12:39:39.058Z,1007.42
2018-08-27T12:40:48.497Z,1007.4
2018-08-27T12:41:58.188Z,1007.38
2018-08-27T12:43:07.876Z,1007.46
2018-08-27T12:44:17.585Z,1007.48
2018-08-27T12:45:26.994Z,1007.44
2018-08-27T12:46:36.948Z,1007.48
2018-08-27T12:47:46.118Z,1007.49
2018-08-27T12:48:55.286Z,1007.56
2018-08-27T12:50:04.982Z,1007.57
2018-08-27T12:51:14.782Z,1007.61
2018-08-27T12:52:24.558Z,1007.58
2018-08-27T12:53:33.721Z,1007.58
2018-08-27T12:54:43.184Z,1007.55
2018-08-27T12:55:52.353Z,1007.51
2018-08-27T12:57:01.801Z,1007.66
2018-08-27T12:58:11.226Z,1007.64
2018-08-27T12:59:21.011Z,1007.66
2018-08-27T13:00:30.179Z,1007.67
2018-08-27T13:01:39.349Z,1007.67
2018-08-27T13:02:48.772Z,1007.66
2018-08-27T13:03:58.712Z,1007.79
2018-08-27T13:05:08.399Z,1007.72
2018-08-27T13:06:18.123Z,1007.85
2018-08-27T13:07:27.282Z,1007.78
2018-08-27T13:08:36.792Z,1007.79
2018-08-27T13:09:46.478Z,1007.79
2018-08-27T13:10:55.890Z,1007.8
2018-08-27T13:12:05.063Z,1007.85
2018-08-27T13:13:14.474Z,1007.88
2018-08-27T13:14:23.631Z,1007.93
2018-08-27T13:15:33.574Z,1007.9
2018-08-27T13:16:43.269Z,1007.96
2018-08-27T13:17:53.227Z,1007.91
2018-08-27T13:19:02.712Z,1007.86
2018-08-27T13:20:11.682Z,1007.91
2018-08-27T13:21:21.614Z,1007.91
2018-08-27T13:22:31.320Z,1007.86
2018-08-27T13:23:40.743Z,1007.87
2018-08-27T13:24:50.422Z,1007.9
2018-08-27T13:25:59.859Z,1007.88
2018-08-27T13:27:09.889Z,1007.89
2018-08-27T13:28:19.307Z,1007.96
2018-08-27T13:29:27.951Z,1008
2018-08-27T13:30:37.138Z,1008.02
2018-08-27T13:31:47.093Z,1007.98
2018-08-27T13:32:56.607Z,1008.05
2018-08-27T13:34:05.273Z,1007.98
2018-08-27T13:35:14.188Z,1008.04
2018-08-27T13:36:23.358Z,1008
2018-08-27T13:37:32.524Z,1008.12
2018-08-27T13:38:41.975Z,1008.11
2018-08-27T13:39:50.875Z,1008.19
2018-08-27T13:41:00.971Z,1008.14
2018-08-27T13:42:10.675Z,1008.18
2018-08-27T13:43:20.088Z,1008.16
2018-08-27T13:44:29.264Z,1008.18
2018-08-27T13:45:38.938Z,1008.2
2018-08-27T13:46:48.386Z,1008.22
2018-08-27T13:47:57.865Z,1008.2
2018-08-27T13:49:07.562Z,1008.31
2018-08-27T13:50:17.251Z,1008.28
2018-08-27T13:51:26.679Z,1008.33
2018-08-27T13:52:36.122Z,1008.3
2018-08-27T13:53:45.569Z,1008.27
2018-08-27T13:54:54.800Z,1008.26
2018-08-27T13:56:03.968Z,1008.34
2018-08-27T13:57:13.119Z,1008.31
2018-08-27T13:58:22.550Z,1008.38
2018-08-27T13:59:31.713Z,1008.46
2018-08-27T14:00:41.197Z,1008.41
2018-08-27T14:01:50.628Z,1008.4
2018-08-27T14:02:59.800Z,1008.39
2018-08-27T14:04:09.506Z,1008.42